Flight Track Log - Related Links

Times and Time Zones

All times are in EDT time to prevent confusion due to time zone crossing. See the SWA2236 flight status page for this flight to view local times or setup timezone preferences in your user account.

Time Position Orientation Groundspeed Altitude Reporting Facility
EDT Latitude Longitude Course Direction KTS MPH feet Rate Location/Type
Sun 02:34:48 PM 36.0747 -115.1819 262° West 184 212 3,400  Level Los Angeles Center
Sun 02:35:43 PM 36.0675 -115.2481 262° West 233 268 4,500 1,630 Climbing Los Angeles Center
Sun 02:36:20 PM 36.0283 -115.2697 204° Southwest 289 333 5,900 1,576 Climbing Los Angeles Center
Sun 02:37:22 PM 35.9544 -115.2958 196° South 288 331 7,100 1,742 Climbing Los Angeles Center
Sun 02:38:24 PM 35.9078 -115.2278 130° Southeast 285 328 9,500 1,968 Climbing Los Angeles Center
Sun 02:39:27 PM 35.9325 -115.1281 73° East 313 360 11,200 1,920 Climbing Los Angeles Center
Sun 02:40:29 PM 35.9586 -115.0117 74° East 342 394 13,500 2,516 Climbing Los Angeles Center
Sun 02:41:31 PM 35.9544 -114.8597 92° East 372 428 16,400 2,565 Climbing Los Angeles Center
Sun 02:42:33 PM 35.9500 -114.7289 92° East 383 441 18,800 2,226 Climbing Los Angeles Center
Sun 02:43:35 PM 35.9453 -114.5925 92° East 396 456 21,000 2,032 Climbing Los Angeles Center
Sun 02:44:37 PM 35.9411 -114.4492 92° East 412 474 23,000 1,887 Climbing Los Angeles Center
Sun 02:45:39 PM 35.9408 -114.2906 90° East 429 494 24,900 1,839 Climbing Los Angeles Center
Sun 02:46:41 PM 35.9436 -114.1150 89° East 446 513 26,800 1,597 Climbing Los Angeles Center
Sun 02:47:43 PM 35.9433 -113.9547 90° East 460 529 28,200 1,306 Climbing Los Angeles Center
Sun 02:48:45 PM 35.9447 -113.7903 89° East 473 544 29,500 1,392 Climbing Los Angeles Center
Sun 02:49:48 PM 35.9450 -113.6231 90° East 484 557 31,100 1,536 Climbing Los Angeles Center
Sun 02:50:50 PM 35.9458 -113.4611 90° East 483 556 32,700 1,452 Climbing Los Angeles Center
Sun 02:51:52 PM 35.9464 -113.2989 90° East 477 549 34,100 1,355 Climbing Los Angeles Center
Sun 02:52:54 PM 35.9458 -113.1350 90° East 478 550 35,500 1,355 Climbing Los Angeles Center
Sun 02:53:56 PM 35.9447 -112.9406 90° East 475 547 36,900 726 Climbing Los Angeles Center
Sun 02:54:58 PM 35.9439 -112.7800 90° East 471 542 37,000 48 Climbing Los Angeles Center
Sun 02:56:00 PM 35.9431 -112.6192 90° East 469 540 37,000  Level Los Angeles Center
Sun 02:57:02 PM 35.9422 -112.4517 90° East 469 540 37,000  Level Los Angeles Center
Sun 02:58:04 PM 35.9414 -112.2908 90° East 471 542 37,000  Level Los Angeles Center
Sun 02:59:06 PM 35.9378 -112.1386 92° East 467 537 37,000  Level Los Angeles Center
Sun 03:00:09 PM 35.9364 -111.9411 90° East 467 537 37,000  Level Los Angeles Center
Sun 03:01:11 PM 35.9336 -111.7797 91° East 471 542 37,000  Level Los Angeles Center
Sun 03:02:13 PM 35.9317 -111.6181 91° East 473 544 37,000  Level Los Angeles Center
Sun 03:03:14 PM 35.9297 -111.4881 91° East 475 547 37,000  Level Los Angeles Center
Sun 03:04:17 PM 35.9253 -111.2936 92° East 475 547 37,000  Level Los Angeles Center
Sun 03:05:19 PM 35.9228 -111.1319 91° East 473 544 37,000  Level Los Angeles Center
Sun 03:06:36 PM 35.9200 -110.9069 91° East 472 543 37,000  Level Denver Center
Sun 03:07:38 PM 35.9144 -110.7472 92° East 469 540 37,000  Level Denver Center
Sun 03:08:40 PM 35.9125 -110.5861 91° East 470 541 37,000  Level Denver Center
Sun 03:09:42 PM 35.9083 -110.4275 92° East 467 537 37,000  Level Denver Center
Sun 03:10:44 PM 35.9031 -110.2358 92° East 468 539 37,000  Level Denver Center
Sun 03:11:47 PM 35.8994 -110.0853 92° East 466 536 37,000  Level Denver Center
Sun 03:12:49 PM 35.8933 -109.9056 92° East 470 541 37,000  Level Denver Center
Sun 03:13:51 PM 35.8892 -109.7525 92° East 469 540 37,000  Level Denver Center
Sun 03:14:34 PM 35.8844 -109.6244 93° East 467 537 37,000  Level Albuquerque Center
Sun 03:15:36 PM 35.8797 -109.4700 92° East 470 541 37,000  Level Albuquerque Center
Sun 03:16:38 PM 35.8731 -109.2900 93° East 471 542 37,000  Level Albuquerque Center
Sun 03:17:40 PM 35.8678 -109.1389 92° East 467 537 37,000  Level Albuquerque Center
Sun 03:18:42 PM 35.8608 -108.9628 93° East 465 535 37,000  Level Albuquerque Center
Sun 03:20:45 PM 35.8492 -108.6378 92° East 464 534 37,000  Level Albuquerque Center
Sun 03:21:47 PM 35.8436 -108.4875 93° East 462 532 37,000  Level Albuquerque Center
Sun 03:22:49 PM 35.8356 -108.3114 93° East 462 532 37,000  Level Albuquerque Center
Sun 03:23:51 PM 35.8289 -108.1594 93° East 465 535 37,000  Level Albuquerque Center
Sun 03:24:53 PM 35.8208 -107.9825 93° East 464 534 37,000  Level Albuquerque Center
Sun 03:25:55 PM 35.8136 -107.8300 93° East 465 535 37,000  Level Albuquerque Center
Sun 03:26:57 PM 35.8042 -107.6536 94° East 464 534 37,000  Level Albuquerque Center
Sun 03:27:59 PM 35.7975 -107.5014 93° East 465 535 37,000  Level Albuquerque Center
Sun 03:29:00 PM 35.7842 -107.3500 96° East 465 535 37,000  Level Albuquerque Center
Sun 03:30:02 PM 35.7658 -107.1758 97° East 463 533 37,000  Level Albuquerque Center
Sun 03:31:04 PM 35.7511 -107.0253 97° East 461 531 37,000  Level Albuquerque Center
Sun 03:32:06 PM 35.7325 -106.8494 97° East 463 533 37,000  Level Albuquerque Center
Sun 03:33:08 PM 35.7172 -106.6992 97° East 463 533 37,000  Level Albuquerque Center
Sun 03:34:10 PM 35.7017 -106.5228 96° East 464 534 37,000  Level Albuquerque Center
Sun 03:35:12 PM 35.6858 -106.3728 97° East 463 533 37,000  Level Albuquerque Center
Sun 03:36:14 PM 35.6669 -106.1986 98° East 462 532 37,000  Level Albuquerque Center
Sun 03:37:16 PM 35.6419 -106.0703 103° East 466 536 37,000  Level Albuquerque Center
Sun 03:38:18 PM 35.6089 -105.8869 102° East 461 531 37,000  Level Albuquerque Center
Sun 03:39:20 PM 35.5808 -105.7403 103° East 457 526 37,000  Level Albuquerque Center
Sun 03:40:21 PM 35.5503 -105.5867 104° East 457 526 37,000  Level Albuquerque Center
Sun 03:41:23 PM 35.5208 -105.4339 103° East 456 525 37,000  Level Albuquerque Center
Sun 03:42:25 PM 35.4844 -105.2558 104° East 457 526 37,000  Level Albuquerque Center
Sun 03:43:27 PM 35.4711 -105.0986 96° East 459 528 37,000  Level Albuquerque Center
Sun 03:44:29 PM 35.4647 -104.9389 93° East 463 533 37,000  Level Albuquerque Center
Sun 03:45:31 PM 35.4558 -104.7792 94° East 465 535 37,000  Level Albuquerque Center
Sun 03:46:33 PM 35.4461 -104.6197 94° East 464 534 37,000  Level Albuquerque Center
Sun 03:47:35 PM 35.4364 -104.4617 94° East 460 529 37,000  Level Albuquerque Center
Sun 03:48:37 PM 35.4286 -104.3019 93° East 460 529 37,000  Level Albuquerque Center
Sun 03:49:38 PM 35.4192 -104.1406 94° East 462 532 37,000  Level Albuquerque Center
Sun 03:50:40 PM 35.4075 -103.9803 95° East 462 532 37,000  Level Albuquerque Center
Sun 03:51:42 PM 35.3969 -103.8233 95° East 458 527 37,000  Level Albuquerque Center
Sun 03:52:44 PM 35.3864 -103.6667 95° East 456 525 37,000  Level Albuquerque Center
Sun 03:53:46 PM 35.3761 -103.5111 95° East 455 524 37,000  Level Albuquerque Center
Sun 03:54:48 PM 35.3636 -103.3294 95° East 455 524 37,000  Level Albuquerque Center
Sun 03:55:49 PM 35.3519 -103.1725 95° East 457 526 37,000  Level Albuquerque Center
Sun 03:56:51 PM 35.3403 -103.0161 95° East 457 526 37,000  Level Albuquerque Center
Sun 03:57:53 PM 35.3286 -102.8606 95° East 456 525 37,000  Level Albuquerque Center
Sun 03:58:56 PM 35.3158 -102.7053 96° East 454 522 37,000  Level Albuquerque Center
Sun 03:59:58 PM 35.3050 -102.5603 95° East 454 522 37,000  Level Albuquerque Center
Sun 04:01:00 PM 35.2903 -102.3764 96° East 454 522 37,000  Level Albuquerque Center
Sun 04:02:02 PM 35.2667 -102.2244 101° East 455 524 37,000  Level Albuquerque Center
Sun 04:03:03 PM 35.2375 -102.0739 103° East 456 525 37,000  Level Albuquerque Center
Sun 04:04:05 PM 35.2089 -101.9108 102° East 456 525 37,000  Level Albuquerque Center
Sun 04:05:07 PM 35.1817 -101.7589 102° East 456 525 37,000  Level Albuquerque Center
Sun 04:06:09 PM 35.1556 -101.6175 103° East 453 521 37,000  Level Albuquerque Center
Sun 04:07:11 PM 35.1267 -101.4653 103° East 457 526 37,000  Level Albuquerque Center
Sun 04:08:12 PM 35.0964 -101.3053 103° East 453 521 37,000  Level Albuquerque Center
Sun 04:09:14 PM 35.0681 -101.1558 103° East 453 521 37,000  Level Albuquerque Center
Sun 04:10:16 PM 35.0400 -101.0092 103° East 448 516 37,000  Level Albuquerque Center
Sun 04:11:18 PM 35.0067 -100.8333 103° East 444 511 37,000  Level Albuquerque Center
Sun 04:12:19 PM 34.9783 -100.6856 103° East 447 514 37,000  Level Albuquerque Center
Sun 04:13:21 PM 34.9497 -100.5392 103° East 447 514 37,000  Level Albuquerque Center
Sun 04:14:23 PM 34.9214 -100.3914 103° East 449 517 37,000  Level Albuquerque Center
Sun 04:15:25 PM 34.8939 -100.2519 103° East 448 516 37,000  Level Albuquerque Center
Sun 04:16:27 PM 34.8639 -100.0717 101° East 452 520 37,000  Level Albuquerque Center
Sun 04:17:28 PM 34.8389 -99.9217 101° East 453 521 37,000  Level Albuquerque Center
Sun 04:18:30 PM 34.8142 -99.7753 102° East 447 514 37,000  Level Albuquerque Center
Sun 04:19:32 PM 34.7886 -99.6278 102° East 446 513 37,000  Level Albuquerque Center
Sun 04:20:34 PM 34.7631 -99.4792 102° East 448 516 37,000  Level Albuquerque Center
Sun 04:21:30 PM 34.7344 -99.3264 103° East 441 507 37,000  Level Fort Worth Center
Sun 04:22:30 PM 34.7075 -99.1742 102° East 441 507 37,000  Level Fort Worth Center
Sun 04:23:30 PM 34.6825 -99.0272 102° East 447 514 37,000  Level Fort Worth Center
Sun 04:24:30 PM 34.6572 -98.8753 101° East 455 524 37,000  Level Fort Worth Center
Sun 04:25:30 PM 34.6294 -98.7308 103° East 450 518 37,000  Level Fort Worth Center
Sun 04:26:30 PM 34.6058 -98.6069 103° East 426 490 37,000  Level Fort Worth Center
Sun 04:27:30 PM 34.5778 -98.4603 103° East 427 491 37,000  Level Fort Worth Center
Sun 04:28:30 PM 34.5497 -98.3136 103° East 438 504 37,000  Level Fort Worth Center
Sun 04:29:30 PM 34.5236 -98.1622 102° East 443 510 37,000  Level Fort Worth Center
Sun 04:30:30 PM 34.4953 -98.0158 103° East 448 516 37,000  Level Fort Worth Center
Sun 04:31:30 PM 34.4689 -97.8644 102° East 453 521 37,000  Level Fort Worth Center
Sun 04:32:30 PM 34.4400 -97.7158 103° East 453 521 37,000  Level Fort Worth Center
Sun 04:33:30 PM 34.4092 -97.5619 104° East 453 521 37,000  Level Fort Worth Center
Sun 04:34:30 PM 34.3800 -97.4061 103° East 453 521 37,000  Level Fort Worth Center
Sun 04:35:30 PM 34.3506 -97.2550 103° East 458 527 37,000  Level Fort Worth Center
Sun 04:36:30 PM 34.3211 -97.1017 103° East 458 527 37,000  Level Fort Worth Center
Sun 04:37:30 PM 34.2894 -96.9486 104° East 463 533 37,000  Level Fort Worth Center
Sun 04:38:30 PM 34.2572 -96.7778 103° East 471 542 37,000  Level Fort Worth Center
Sun 04:39:30 PM 34.2253 -96.6272 104° East 471 542 37,000  Level Fort Worth Center
Sun 04:40:30 PM 34.1950 -96.4769 104° East 471 542 37,000  Level Fort Worth Center
Sun 04:41:30 PM 34.1667 -96.3217 102° East 471 542 37,000  Level Fort Worth Center
Sun 04:42:30 PM 34.1358 -96.1739 104° East 466 536 37,000  Level Fort Worth Center
Sun 04:43:30 PM 34.1072 -96.0264 103° East 460 529 37,000  Level Fort Worth Center
Sun 04:44:30 PM 34.0806 -95.8764 102° East 455 524 37,000  Level Fort Worth Center
Sun 04:45:30 PM 34.0514 -95.7314 104° East 449 517 37,000  Level Fort Worth Center
Sun 04:46:30 PM 34.0181 -95.5817 105° East 449 517 37,000  Level Fort Worth Center
Sun 04:47:30 PM 33.9867 -95.4397 105° East 449 517 37,000  Level Fort Worth Center
Sun 04:48:30 PM 33.9572 -95.2925 104° East 444 511 37,000  Level Fort Worth Center
Sun 04:49:30 PM 33.9275 -95.1481 104° East 444 511 37,000  Level Fort Worth Center
Sun 04:50:30 PM 33.8978 -95.0011 104° East 449 517 37,000  Level Fort Worth Center
Sun 04:51:30 PM 33.8636 -94.8572 106° East 449 517 37,000  Level Fort Worth Center
Sun 04:52:30 PM 33.8314 -94.7106 105° East 449 517 37,000  Level Fort Worth Center
Sun 04:53:30 PM 33.8031 -94.5664 103° East 449 517 37,000  Level Fort Worth Center
Sun 04:54:30 PM 33.7725 -94.4200 104° East 448 516 37,000  Level Fort Worth Center
Sun 04:55:30 PM 33.7397 -94.2714 105° East 453 521 37,000  Level Fort Worth Center
Sun 04:56:30 PM 33.7089 -94.1275 104° East 448 516 37,000  Level Fort Worth Center
Sun 04:57:30 PM 33.6756 -93.9792 105° East 453 521 37,000  Level Fort Worth Center
Sun 04:58:30 PM 33.6425 -93.8331 105° East 453 521 37,000  Level Fort Worth Center
Sun 04:59:30 PM 33.6156 -93.7019 104° East 448 516 37,000  Level Fort Worth Center
Sun 05:00:30 PM 33.5819 -93.5589 106° East 448 516 37,000  Level Fort Worth Center
Sun 05:01:30 PM 33.5483 -93.4158 106° East 448 516 37,000  Level Fort Worth Center
Sun 05:02:30 PM 33.5144 -93.2728 106° East 448 516 37,000  Level Fort Worth Center
Sun 05:03:30 PM 33.4806 -93.1275 106° East 448 516 37,000  Level Fort Worth Center
Sun 05:04:30 PM 33.4483 -92.9847 105° East 448 516 37,000  Level Fort Worth Center
Sun 05:05:30 PM 33.4139 -92.8397 106° East 448 516 37,000  Level Fort Worth Center
Sun 05:06:30 PM 33.3814 -92.6972 105° East 448 516 37,000  Level Fort Worth Center
Sun 05:07:30 PM 33.3467 -92.5497 106° East 448 516 37,000  Level Fort Worth Center
Sun 05:08:30 PM 33.3139 -92.4075 105° East 448 516 37,000  Level Fort Worth Center
Sun 05:09:39 PM 33.2697 -92.2281 106° East 439 505 37,000  Level Memphis Center
Sun 05:10:39 PM 33.2342 -92.0833 106° East 439 505 37,000  Level Memphis Center
Sun 05:11:39 PM 33.1964 -91.9386 107° East 444 511 37,000  Level Memphis Center
Sun 05:12:39 PM 33.1583 -91.7964 108° East 444 511 37,000  Level Memphis Center
Sun 05:13:39 PM 33.1286 -91.6619 105° East 454 522 37,000  Level Memphis Center
Sun 05:14:39 PM 33.0925 -91.5178 107° East 460 529 37,000  Level Memphis Center
Sun 05:15:39 PM 33.0561 -91.3736 107° East 460 529 37,000  Level Memphis Center
Sun 05:16:39 PM 33.0217 -91.2269 106° East 460 529 37,000  Level Memphis Center
Sun 05:17:39 PM 32.9850 -91.0831 107° East 460 529 37,000  Level Memphis Center
Sun 05:18:39 PM 32.9525 -90.9414 105° East 460 529 37,000  Level Memphis Center
Sun 05:19:39 PM 32.9114 -90.7953 108° East 460 529 37,000  Level Memphis Center
Sun 05:20:39 PM 32.8761 -90.6542 107° East 460 529 37,000  Level Memphis Center
Sun 05:21:39 PM 32.8389 -90.5056 107° East 460 529 37,000  Level Memphis Center
Sun 05:22:39 PM 32.8014 -90.3647 108° East 460 529 37,000  Level Memphis Center
Sun 05:23:39 PM 32.7803 -90.2139 99° East 460 529 37,000  Level Memphis Center
Sun 05:24:39 PM 32.7633 -90.0608 97° East 455 524 37,000  Level Memphis Center
Sun 05:25:39 PM 32.7442 -89.8906 98° East 464 534 37,000  Level Memphis Center
Sun 05:26:39 PM 32.7225 -89.7350 99° East 470 541 37,000  Level Memphis Center
Sun 05:27:39 PM 32.7028 -89.5797 99° East 470 541 37,000  Level Memphis Center
Sun 05:28:39 PM 32.6850 -89.4292 98° East 464 534 37,000  Level Memphis Center
Sun 05:29:39 PM 32.6672 -89.2764 98° East 464 534 37,000  Level Memphis Center
Sun 05:30:39 PM 32.6450 -89.1261 100° East 464 534 37,000  Level Memphis Center
Sun 05:31:39 PM 32.6225 -88.9711 100° East 464 534 37,000  Level Memphis Center
Sun 05:33:33 PM 32.5831 -88.7003 100° East 464 534 37,000  Level Atlanta Center
Sun 05:34:33 PM 32.5511 -88.5531 104° East 464 534 37,000  Level Atlanta Center
Sun 05:35:33 PM 32.5061 -88.4106 110° East 464 534 37,000  Level Atlanta Center
Sun 05:36:33 PM 32.4611 -88.2631 110° East 470 541 37,000  Level Atlanta Center
Sun 05:37:33 PM 32.4158 -88.1181 110° East 475 547 37,000  Level Atlanta Center
Sun 05:38:33 PM 32.3706 -87.9736 110° East 475 547 37,000  Level Atlanta Center
Sun 05:39:33 PM 32.3250 -87.8314 111° Southeast 468 539 37,000  Level Atlanta Center
Sun 05:40:33 PM 32.2686 -87.6964 116° Southeast 462 532 37,000  Level Atlanta Center
Sun 05:41:33 PM 32.2097 -87.5614 117° Southeast 457 526 37,000  Level Atlanta Center
Sun 05:42:33 PM 32.1447 -87.4264 120° Southeast 464 534 37,000  Level Atlanta Center
Sun 05:43:33 PM 32.0836 -87.2942 119° Southeast 464 534 37,000  Level Atlanta Center
Sun 05:44:33 PM 32.0122 -87.1444 119° Southeast 470 541 37,000  Level Atlanta Center
Sun 05:46:51 PM 31.8644 -86.8600 121° Southeast 475 547 37,000  Level Jacksonville Center
Sun 05:47:51 PM 31.7908 -86.7372 125° Southeast 465 535 37,000  Level Jacksonville Center
Sun 05:48:51 PM 31.7111 -86.6167 128° Southeast 465 535 37,000  Level Jacksonville Center
Sun 05:49:51 PM 31.6286 -86.5061 131° Southeast 460 529 37,000  Level Jacksonville Center
Sun 05:50:51 PM 31.5483 -86.3908 129° Southeast 455 524 37,000  Level Jacksonville Center
Sun 05:51:51 PM 31.5000 -86.2500 112° Southeast 455 524 37,000  Level Jacksonville Center
Sun 05:52:51 PM 31.4642 -86.1028 106° East 455 524 37,000  Level Jacksonville Center
Sun 05:53:51 PM 31.4258 -85.9603 107° East 460 529 37,000  Level Jacksonville Center
Sun 05:54:51 PM 31.3897 -85.8153 106° East 466 536 37,000  Level Jacksonville Center
Sun 05:55:51 PM 31.3406 -85.6778 113° Southeast 466 536 37,000  Level Jacksonville Center
Sun 05:56:51 PM 31.2933 -85.5425 112° Southeast 456 525 37,000  Level Jacksonville Center
Sun 05:57:51 PM 31.2439 -85.4050 113° Southeast 456 525 37,000  Level Jacksonville Center
Sun 05:58:51 PM 31.1942 -85.2703 113° Southeast 456 525 37,000  Level Jacksonville Center
Sun 05:59:51 PM 31.1447 -85.1331 113° Southeast 456 525 37,000  Level Jacksonville Center
Sun 06:00:51 PM 31.0928 -84.9958 114° Southeast 456 525 37,000  Level Jacksonville Center
Sun 06:01:51 PM 31.0428 -84.8567 113° Southeast 462 532 37,000  Level Jacksonville Center
Sun 06:02:51 PM 30.9883 -84.7172 114° Southeast 462 532 37,000  Level Jacksonville Center
Sun 06:03:51 PM 30.9361 -84.5806 114° Southeast 462 532 37,000  Level Jacksonville Center
Sun 06:04:51 PM 30.8856 -84.4442 113° Southeast 462 532 37,000  Level Jacksonville Center
Sun 06:05:51 PM 30.8350 -84.3081 113° Southeast 462 532 37,000 -300 Level Jacksonville Center
Sun 06:06:51 PM 30.7842 -84.1742 114° Southeast 457 526 36,400 -1,700 Descending Jacksonville Center
Sun 06:07:51 PM 30.7331 -84.0431 114° Southeast 452 520 33,600 -2,900 Descending Jacksonville Center
Sun 06:08:51 PM 30.6822 -83.9069 113° Southeast 452 520 30,600 -2,650 Descending Jacksonville Center
Sun 06:09:51 PM 30.6331 -83.7739 113° Southeast 452 520 28,300 -2,250 Descending Jacksonville Center
Sun 06:10:51 PM 30.5839 -83.6431 114° Southeast 447 514 26,100 -2,150 Descending Jacksonville Center
Sun 06:11:51 PM 30.5428 -83.5222 112° Southeast 430 495 24,000 -1,050 Descending Jacksonville Center
Sun 06:12:51 PM 30.5328 -83.3942 95° East 390 449 24,000  Level Jacksonville Center
Sun 06:13:51 PM 30.5269 -83.2664 93° East 395 455 24,000 -450 Level Jacksonville Center
Sun 06:14:51 PM 30.5231 -83.1242 92° East 395 455 23,100 -800 Descending Jacksonville Center
Sun 06:15:51 PM 30.5192 -82.9986 92° East 395 455 22,400 -1,350 Descending Jacksonville Center
Sun 06:16:51 PM 30.5150 -82.8733 92° East 395 455 20,400 -2,050 Descending Jacksonville Center
Sun 06:17:51 PM 30.5108 -82.7528 92° East 385 443 18,300 -2,050 Descending Jacksonville Center
Sun 06:18:51 PM 30.5169 -82.6369 86° East 367 422 16,300 -2,118 Descending Jacksonville Center
Sun 06:19:33 PM 30.5356 -82.5622 74° East 362 417 14,700 -2,050 Descending Jacksonville Center
Sun 06:20:51 PM 30.5600 -82.4222 79° East 362 417 12,200 -1,937 Descending Jacksonville Center
Sun 06:21:40 PM 30.5556 -82.3256 93° East 322 371 10,600 -1,636 Descending Jacksonville Center
Sun 06:22:41 PM 30.5361 -82.2317 103° East 287 330 9,200 -1,603 Descending Jacksonville Center
Sun 06:23:36 PM 30.5233 -82.1497 100° East 278 320 7,500 -1,241 Descending Jacksonville Center
Sun 06:24:37 PM 30.5081 -82.0681 102° East 256 295 6,800 -672 Descending Jacksonville Center
Sun 06:25:32 PM 30.4972 -82.0006 101° East 206 237 6,200 -991 Descending Jacksonville Center
Sun 06:26:32 PM 30.4864 -81.9403 102° East 192 221 4,900 -1,338 Descending Jacksonville Center
Sun 06:27:51 PM 30.4733 -81.8683 102° East 193 222 3,100 -1,426 Descending Jacksonville Center
Sun 06:28:34 PM 30.4667 -81.8200 99° East 179 206 2,000 -1,096 Descending Jacksonville Center
Sun 06:29:35 PM 30.4744 -81.7694 80° East 157 181 1,200 -744 Descending Jacksonville Center
Sun 06:30:35 PM 30.4867 -81.7258 72° East 134 154 500 -700 Descending Jacksonville Center
Sun 06:32:00 PM 30.4941 -81.6879 115° Southeast  Level Estimated
Sun 06:39:00 PM 30.4941 -81.6879 311° West  Level Estimated

Login

Don't have an account? Register now (free) for customized features, flight alerts, and more!